sensor_id;sensor_type;location;lat;lon;timestamp;temperature;humidity
22850;DHT22;11591;44.792;10.358;2023-03-01T05:47:04;6.00;99.90
22850;DHT22;11591;44.792;10.358;2023-03-01T05:49:31;6.10;99.90
22850;DHT22;11591;44.792;10.358;2023-03-01T05:51:57;6.10;99.90
22850;DHT22;11591;44.792;10.358;2023-03-01T05:54:23;6.10;99.90
22850;DHT22;11591;44.792;10.358;2023-03-01T05:56:49;6.20;99.90
22850;DHT22;11591;44.792;10.358;2023-03-01T05:59:15;6.20;99.90
22850;DHT22;11591;44.792;10.358;2023-03-01T06:01:41;6.20;99.90
22850;DHT22;11591;44.792;10.358;2023-03-01T06:04:07;6.10;99.90
22850;DHT22;11591;44.792;10.358;2023-03-01T06:06:34;6.10;99.90
22850;DHT22;11591;44.792;10.358;2023-03-01T06:09:03;6.00;99.90
22850;DHT22;11591;44.792;10.358;2023-03-01T06:11:29;6.00;99.90
22850;DHT22;11591;44.792;10.358;2023-03-01T06:13:55;6.00;99.90
22850;DHT22;11591;44.792;10.358;2023-03-01T06:16:21;6.00;99.90
22850;DHT22;11591;44.792;10.358;2023-03-01T06:18:47;6.00;99.90
22850;DHT22;11591;44.792;10.358;2023-03-01T06:21:13;6.10;99.90
22850;DHT22;11591;44.792;10.358;2023-03-01T06:23:39;6.00;99.90
22850;DHT22;11591;44.792;10.358;2023-03-01T06:26:23;6.00;99.90
22850;DHT22;11591;44.792;10.358;2023-03-01T06:28:49;6.10;99.90
22850;DHT22;11591;44.792;10.358;2023-03-01T06:31:15;6.10;99.90
22850;DHT22;11591;44.792;10.358;2023-03-01T06:33:41;6.10;99.90
22850;DHT22;11591;44.792;10.358;2023-03-01T06:36:07;6.10;99.90
22850;DHT22;11591;44.792;10.358;2023-03-01T06:38:33;6.00;99.90
22850;DHT22;11591;44.792;10.358;2023-03-01T06:40:59;6.10;99.90
22850;DHT22;11591;44.792;10.358;2023-03-01T06:43:27;6.00;99.90
22850;DHT22;11591;44.792;10.358;2023-03-01T06:45:53;6.00;99.90
22850;DHT22;11591;44.792;10.358;2023-03-01T06:48:19;5.90;99.90
22850;DHT22;11591;44.792;10.358;2023-03-01T06:50:44;5.90;99.90
22850;DHT22;11591;44.792;10.358;2023-03-01T06:53:10;5.90;99.90
22850;DHT22;11591;44.792;10.358;2023-03-01T06:55:36;5.90;99.90
22850;DHT22;11591;44.792;10.358;2023-03-01T06:58:02;5.90;99.90
22850;DHT22;11591;44.792;10.358;2023-03-01T07:00:28;5.90;99.90
22850;DHT22;11591;44.792;10.358;2023-03-01T07:02:55;6.00;99.90
22850;DHT22;11591;44.792;10.358;2023-03-01T07:05:23;6.00;99.90
22850;DHT22;11591;44.792;10.358;2023-03-01T07:07:49;6.00;99.90
22850;DHT22;11591;44.792;10.358;2023-03-01T07:10:14;6.10;99.90
22850;DHT22;11591;44.792;10.358;2023-03-01T07:12:40;6.20;99.90
22850;DHT22;11591;44.792;10.358;2023-03-01T07:15:09;6.30;99.90
22850;DHT22;11591;44.792;10.358;2023-03-01T07:17:35;6.40;99.90
22850;DHT22;11591;44.792;10.358;2023-03-01T07:20:01;6.40;99.90
22850;DHT22;11591;44.792;10.358;2023-03-01T07:22:27;6.50;99.90
22850;DHT22;11591;44.792;10.358;2023-03-01T07:24:53;6.50;99.90
22850;DHT22;11591;44.792;10.358;2023-03-01T07:27:18;6.60;99.90
22850;DHT22;11591;44.792;10.358;2023-03-01T07:29:44;6.60;99.90
22850;DHT22;11591;44.792;10.358;2023-03-01T07:32:10;6.70;99.90
22850;DHT22;11591;44.792;10.358;2023-03-01T07:34:36;6.70;99.90
22850;DHT22;11591;44.792;10.358;2023-03-01T07:37:02;6.70;99.90
22850;DHT22;11591;44.792;10.358;2023-03-01T07:39:28;6.80;99.90
22850;DHT22;11591;44.792;10.358;2023-03-01T07:41:53;6.80;99.90
22850;DHT22;11591;44.792;10.358;2023-03-01T07:44:21;6.90;99.90
22850;DHT22;11591;44.792;10.358;2023-03-01T07:46:47;6.90;99.90
22850;DHT22;11591;44.792;10.358;2023-03-01T07:49:13;6.90;99.90
22850;DHT22;11591;44.792;10.358;2023-03-01T07:51:39;7.00;99.90
22850;DHT22;11591;44.792;10.358;2023-03-01T07:54:05;6.90;99.90
22850;DHT22;11591;44.792;10.358;2023-03-01T07:56:31;6.80;99.90
22850;DHT22;11591;44.792;10.358;2023-03-01T07:58:59;6.70;99.90
22850;DHT22;11591;44.792;10.358;2023-03-01T08:01:25;6.60;99.90
22850;DHT22;11591;44.792;10.358;2023-03-01T08:03:51;6.50;99.90
22850;DHT22;11591;44.792;10.358;2023-03-01T08:06:17;6.40;99.90
22850;DHT22;11591;44.792;10.358;2023-03-01T08:08:44;6.40;99.90
22850;DHT22;11591;44.792;10.358;2023-03-01T08:11:11;6.30;99.90
22850;DHT22;11591;44.792;10.358;2023-03-01T08:13:37;6.30;99.90
22850;DHT22;11591;44.792;10.358;2023-03-01T08:16:08;6.30;99.90
22850;DHT22;11591;44.792;10.358;2023-03-01T08:18:35;6.40;99.90
22850;DHT22;11591;44.792;10.358;2023-03-01T08:21:04;6.30;99.90
22850;DHT22;11591;44.792;10.358;2023-03-01T08:23:30;6.20;99.90
22850;DHT22;11591;44.792;10.358;2023-03-01T08:26:04;6.20;99.90
22850;DHT22;11591;44.792;10.358;2023-03-01T08:28:30;6.10;99.90
22850;DHT22;11591;44.792;10.358;2023-03-01T08:30:56;6.10;99.90
22850;DHT22;11591;44.792;10.358;2023-03-01T08:33:21;6.00;99.90
22850;DHT22;11591;44.792;10.358;2023-03-01T08:35:47;6.00;99.90
22850;DHT22;11591;44.792;10.358;2023-03-01T08:38:14;5.90;99.90
22850;DHT22;11591;44.792;10.358;2023-03-01T08:40:40;6.00;99.90
22850;DHT22;11591;44.792;10.358;2023-03-01T08:43:06;6.00;99.90
22850;DHT22;11591;44.792;10.358;2023-03-01T08:45:31;5.90;99.90
22850;DHT22;11591;44.792;10.358;2023-03-01T08:47:58;5.90;99.90
22850;DHT22;11591;44.792;10.358;2023-03-01T08:50:24;5.90;99.90
22850;DHT22;11591;44.792;10.358;2023-03-01T08:52:50;5.80;99.90
22850;DHT22;11591;44.792;10.358;2023-03-01T08:55:16;5.80;99.90
22850;DHT22;11591;44.792;10.358;2023-03-01T08:57:43;5.70;99.90
22850;DHT22;11591;44.792;10.358;2023-03-01T09:00:10;5.70;99.90
22850;DHT22;11591;44.792;10.358;2023-03-01T09:02:37;5.70;99.90
22850;DHT22;11591;44.792;10.358;2023-03-01T09:05:04;5.70;99.90
22850;DHT22;11591;44.792;10.358;2023-03-01T09:07:30;5.70;99.90
22850;DHT22;11591;44.792;10.358;2023-03-01T09:09:55;5.70;99.90
22850;DHT22;11591;44.792;10.358;2023-03-01T09:12:22;5.70;99.90
22850;DHT22;11591;44.792;10.358;2023-03-01T09:14:47;5.80;99.90
22850;DHT22;11591;44.792;10.358;2023-03-01T09:17:13;5.80;99.90
22850;DHT22;11591;44.792;10.358;2023-03-01T09:19:39;5.90;99.90
22850;DHT22;11591;44.792;10.358;2023-03-01T09:22:05;6.00;99.90
22850;DHT22;11591;44.792;10.358;2023-03-01T09:24:31;6.00;99.90
22850;DHT22;11591;44.792;10.358;2023-03-01T09:26:57;6.10;99.90
22850;DHT22;11591;44.792;10.358;2023-03-01T09:29:23;6.10;99.90
22850;DHT22;11591;44.792;10.358;2023-03-01T09:31:49;6.10;99.90
22850;DHT22;11591;44.792;10.358;2023-03-01T09:34:15;6.10;99.90
22850;DHT22;11591;44.792;10.358;2023-03-01T09:36:44;6.10;99.90
22850;DHT22;11591;44.792;10.358;2023-03-01T09:39:10;6.00;99.90
22850;DHT22;11591;44.792;10.358;2023-03-01T09:41:46;6.00;99.90
22850;DHT22;11591;44.792;10.358;2023-03-01T09:46:44;5.90;99.90
22850;DHT22;11591;44.792;10.358;2023-03-01T09:49:29;5.90;99.90
22850;DHT22;11591;44.792;10.358;2023-03-01T09:54:45;5.90;99.90
22850;DHT22;11591;44.792;10.358;2023-03-01T10:02:52;6.10;99.90
22850;DHT22;11591;44.792;10.358;2023-03-01T10:10:37;6.30;99.90
22850;DHT22;11591;44.792;10.358;2023-03-01T10:13:10;6.30;99.90
22850;DHT22;11591;44.792;10.358;2023-03-01T10:15:44;6.30;99.90
22850;DHT22;11591;44.792;10.358;2023-03-01T10:18:14;6.40;99.90
22850;DHT22;11591;44.792;10.358;2023-03-01T10:20:52;6.30;99.90
22850;DHT22;11591;44.792;10.358;2023-03-01T10:23:18;6.30;99.90
22850;DHT22;11591;44.792;10.358;2023-03-01T10:26:02;6.30;99.90
22850;DHT22;11591;44.792;10.358;2023-03-01T10:31:13;6.40;99.90
22850;DHT22;11591;44.792;10.358;2023-03-01T10:33:41;6.40;99.90
22850;DHT22;11591;44.792;10.358;2023-03-01T10:36:07;6.40;99.90
22850;DHT22;11591;44.792;10.358;2023-03-01T10:38:56;6.40;99.90
22850;DHT22;11591;44.792;10.358;2023-03-01T10:41:24;6.30;99.90
22850;DHT22;11591;44.792;10.358;2023-03-01T10:43:56;6.30;99.90
22850;DHT22;11591;44.792;10.358;2023-03-01T10:51:42;6.50;99.90
22850;DHT22;11591;44.792;10.358;2023-03-01T10:54:23;6.50;99.90
22850;DHT22;11591;44.792;10.358;2023-03-01T10:57:02;6.60;99.90
22850;DHT22;11591;44.792;10.358;2023-03-01T10:59:30;6.60;99.90
22850;DHT22;11591;44.792;10.358;2023-03-01T11:02:21;6.60;99.90
22850;DHT22;11591;44.792;10.358;2023-03-01T11:04:59;6.60;99.90
22850;DHT22;11591;44.792;10.358;2023-03-01T11:07:25;6.60;99.90
22850;DHT22;11591;44.792;10.358;2023-03-01T11:09:51;6.60;99.90
22850;DHT22;11591;44.792;10.358;2023-03-01T11:12:17;6.60;99.90
22850;DHT22;11591;44.792;10.358;2023-03-01T11:15:02;6.60;99.90
22850;DHT22;11591;44.792;10.358;2023-03-01T11:17:31;6.60;99.90
22850;DHT22;11591;44.792;10.358;2023-03-01T11:20:01;6.60;99.90
22850;DHT22;11591;44.792;10.358;2023-03-01T11:22:30;6.50;99.90
22850;DHT22;11591;44.792;10.358;2023-03-01T11:24:57;6.60;99.90
22850;DHT22;11591;44.792;10.358;2023-03-01T11:27:32;6.60;99.90
22850;DHT22;11591;44.792;10.358;2023-03-01T11:30:18;6.70;99.90
22850;DHT22;11591;44.792;10.358;2023-03-01T11:32:52;6.80;99.90
22850;DHT22;11591;44.792;10.358;2023-03-01T11:35:22;6.80;99.90
22850;DHT22;11591;44.792;10.358;2023-03-01T11:38:22;6.90;99.90
22850;DHT22;11591;44.792;10.358;2023-03-01T12:08:24;6.90;99.90
22850;DHT22;11591;44.792;10.358;2023-03-01T12:14:09;6.70;99.90
22850;DHT22;11591;44.792;10.358;2023-03-01T12:36:13;6.10;99.90
22850;DHT22;11591;44.792;10.358;2023-03-01T12:50:40;6.20;99.90
22850;DHT22;11591;44.792;10.358;2023-03-01T12:53:20;6.20;99.90
22850;DHT22;11591;44.792;10.358;2023-03-01T12:55:47;6.20;99.90
22850;DHT22;11591;44.792;10.358;2023-03-01T12:58:37;6.10;99.90
22850;DHT22;11591;44.792;10.358;2023-03-01T13:07:02;6.10;99.90
22850;DHT22;11591;44.792;10.358;2023-03-01T13:12:03;6.00;99.90
22850;DHT22;11591;44.792;10.358;2023-03-01T13:16:58;5.90;99.90
22850;DHT22;11591;44.792;10.358;2023-03-01T13:19:25;5.80;99.90
22850;DHT22;11591;44.792;10.358;2023-03-01T13:21:53;5.70;99.90
22850;DHT22;11591;44.792;10.358;2023-03-01T13:24:37;5.60;99.90
22850;DHT22;11591;44.792;10.358;2023-03-01T13:29:51;5.50;99.90
22850;DHT22;11591;44.792;10.358;2023-03-01T13:32:34;5.40;99.90
22850;DHT22;11591;44.792;10.358;2023-03-01T13:37:45;5.40;99.90
22850;DHT22;11591;44.792;10.358;2023-03-01T13:42:51;5.30;99.90
22850;DHT22;11591;44.792;10.358;2023-03-01T13:45:40;5.40;99.90
22850;DHT22;11591;44.792;10.358;2023-03-01T13:48:23;5.30;99.90
22850;DHT22;11591;44.792;10.358;2023-03-01T13:51:10;5.40;99.90
22850;DHT22;11591;44.792;10.358;2023-03-01T13:53:40;5.30;99.90
22850;DHT22;11591;44.792;10.358;2023-03-01T13:58:52;5.10;99.90
22850;DHT22;11591;44.792;10.358;2023-03-01T14:01:30;5.10;99.90
22850;DHT22;11591;44.792;10.358;2023-03-01T14:03:57;5.20;99.90
22850;DHT22;11591;44.792;10.358;2023-03-01T14:06:26;5.20;99.90
22850;DHT22;11591;44.792;10.358;2023-03-01T14:09:22;5.30;99.90
22850;DHT22;11591;44.792;10.358;2023-03-01T14:15:06;5.40;99.90
22850;DHT22;11591;44.792;10.358;2023-03-01T14:20:21;5.40;99.90
22850;DHT22;11591;44.792;10.358;2023-03-01T14:22:49;5.40;99.90
22850;DHT22;11591;44.792;10.358;2023-03-01T14:25:26;5.40;99.90
22850;DHT22;11591;44.792;10.358;2023-03-01T14:27:57;5.40;99.90
22850;DHT22;11591;44.792;10.358;2023-03-01T14:30:32;5.40;99.90
22850;DHT22;11591;44.792;10.358;2023-03-01T14:33:01;5.40;99.90
22850;DHT22;11591;44.792;10.358;2023-03-01T14:35:30;5.50;99.90
22850;DHT22;11591;44.792;10.358;2023-03-01T14:38:13;5.50;99.90
22850;DHT22;11591;44.792;10.358;2023-03-01T14:40:45;5.40;99.90
22850;DHT22;11591;44.792;10.358;2023-03-01T14:43:18;5.40;99.90
22850;DHT22;11591;44.792;10.358;2023-03-01T14:45:50;5.40;99.90
22850;DHT22;11591;44.792;10.358;2023-03-01T14:48:16;5.50;99.90
22850;DHT22;11591;44.792;10.358;2023-03-01T14:50:43;5.50;99.90
22850;DHT22;11591;44.792;10.358;2023-03-01T14:53:22;5.50;99.90
22850;DHT22;11591;44.792;10.358;2023-03-01T14:55:53;5.50;99.90
22850;DHT22;11591;44.792;10.358;2023-03-01T14:58:22;5.50;99.90
22850;DHT22;11591;44.792;10.358;2023-03-01T15:00:56;5.50;99.90
22850;DHT22;11591;44.792;10.358;2023-03-01T15:03:43;5.50;99.90
22850;DHT22;11591;44.792;10.358;2023-03-01T15:06:10;5.40;99.90
22850;DHT22;11591;44.792;10.358;2023-03-01T15:08:42;5.40;99.90
22850;DHT22;11591;44.792;10.358;2023-03-01T15:13:39;5.40;99.90
22850;DHT22;11591;44.792;10.358;2023-03-01T15:16:24;5.40;99.90
22850;DHT22;11591;44.792;10.358;2023-03-01T15:19:03;5.40;99.90
22850;DHT22;11591;44.792;10.358;2023-03-01T15:21:32;5.50;99.90
22850;DHT22;11591;44.792;10.358;2023-03-01T15:26:59;5.50;99.90
22850;DHT22;11591;44.792;10.358;2023-03-01T15:29:32;5.50;99.90
22850;DHT22;11591;44.792;10.358;2023-03-01T15:33:15;5.50;99.90
22850;DHT22;11591;44.792;10.358;2023-03-01T15:35:50;5.50;99.90
22850;DHT22;11591;44.792;10.358;2023-03-01T15:38:36;5.50;99.90
22850;DHT22;11591;44.792;10.358;2023-03-01T15:41:26;5.50;99.90
22850;DHT22;11591;44.792;10.358;2023-03-01T15:43:54;5.50;99.90
22850;DHT22;11591;44.792;10.358;2023-03-01T15:46:34;5.60;99.90
22850;DHT22;11591;44.792;10.358;2023-03-01T15:49:05;5.60;99.90
22850;DHT22;11591;44.792;10.358;2023-03-01T15:51:36;5.50;99.90
22850;DHT22;11591;44.792;10.358;2023-03-01T15:54:22;5.60;99.90
22850;DHT22;11591;44.792;10.358;2023-03-01T15:56:49;5.60;99.90
22850;DHT22;11591;44.792;10.358;2023-03-01T15:59:16;5.60;99.90
22850;DHT22;11591;44.792;10.358;2023-03-01T16:01:42;5.60;99.90
22850;DHT22;11591;44.792;10.358;2023-03-01T16:04:12;5.60;99.90
22850;DHT22;11591;44.792;10.358;2023-03-01T16:06:42;5.60;99.90
22850;DHT22;11591;44.792;10.358;2023-03-01T16:09:08;5.60;99.90
22850;DHT22;11591;44.792;10.358;2023-03-01T16:11:35;5.50;99.90
22850;DHT22;11591;44.792;10.358;2023-03-01T16:14:02;5.50;99.90
22850;DHT22;11591;44.792;10.358;2023-03-01T16:16:28;5.50;99.90
22850;DHT22;11591;44.792;10.358;2023-03-01T16:18:56;5.50;99.90
22850;DHT22;11591;44.792;10.358;2023-03-01T16:21:24;5.40;99.90
22850;DHT22;11591;44.792;10.358;2023-03-01T16:23:50;5.30;99.90
22850;DHT22;11591;44.792;10.358;2023-03-01T16:26:17;5.30;99.90
22850;DHT22;11591;44.792;10.358;2023-03-01T16:28:45;5.20;99.90
22850;DHT22;11591;44.792;10.358;2023-03-01T16:31:11;5.20;99.90
22850;DHT22;11591;44.792;10.358;2023-03-01T16:33:37;5.10;99.90
22850;DHT22;11591;44.792;10.358;2023-03-01T16:36:10;5.10;99.90
22850;DHT22;11591;44.792;10.358;2023-03-01T16:38:37;5.10;99.90
22850;DHT22;11591;44.792;10.358;2023-03-01T16:41:05;5.10;99.90
22850;DHT22;11591;44.792;10.358;2023-03-01T16:43:31;5.10;99.90
22850;DHT22;11591;44.792;10.358;2023-03-01T16:45:57;5.10;99.90
22850;DHT22;11591;44.792;10.358;2023-03-01T16:48:24;5.10;99.90
22850;DHT22;11591;44.792;10.358;2023-03-01T16:51:00;5.10;99.90
22850;DHT22;11591;44.792;10.358;2023-03-01T16:53:28;5.10;99.90
22850;DHT22;11591;44.792;10.358;2023-03-01T16:55:57;5.00;99.90
22850;DHT22;11591;44.792;10.358;2023-03-01T16:58:24;5.00;99.90
22850;DHT22;11591;44.792;10.358;2023-03-01T17:00:51;4.90;99.90
22850;DHT22;11591;44.792;10.358;2023-03-01T17:03:20;4.90;99.90
22850;DHT22;11591;44.792;10.358;2023-03-01T17:05:46;4.90;99.90
22850;DHT22;11591;44.792;10.358;2023-03-01T17:08:13;4.80;99.90
22850;DHT22;11591;44.792;10.358;2023-03-01T17:10:39;4.80;99.90
22850;DHT22;11591;44.792;10.358;2023-03-01T17:13:04;4.90;99.90
22850;DHT22;11591;44.792;10.358;2023-03-01T17:15:30;4.80;99.90
22850;DHT22;11591;44.792;10.358;2023-03-01T17:17:56;4.80;99.90
22850;DHT22;11591;44.792;10.358;2023-03-01T17:20:21;4.80;99.90
22850;DHT22;11591;44.792;10.358;2023-03-01T17:22:47;4.70;99.90
22850;DHT22;11591;44.792;10.358;2023-03-01T17:25:13;4.70;99.90
22850;DHT22;11591;44.792;10.358;2023-03-01T17:27:40;4.70;99.90
22850;DHT22;11591;44.792;10.358;2023-03-01T17:30:11;4.70;99.90
22850;DHT22;11591;44.792;10.358;2023-03-01T17:32:37;4.70;99.90
22850;DHT22;11591;44.792;10.358;2023-03-01T17:35:03;4.70;99.90
22850;DHT22;11591;44.792;10.358;2023-03-01T17:37:30;4.70;99.90
22850;DHT22;11591;44.792;10.358;2023-03-01T17:39:56;4.60;99.90
22850;DHT22;11591;44.792;10.358;2023-03-01T17:42:21;4.60;99.90
22850;DHT22;11591;44.792;10.358;2023-03-01T17:44:47;4.60;99.90
22850;DHT22;11591;44.792;10.358;2023-03-01T17:47:13;4.50;99.90
22850;DHT22;11591;44.792;10.358;2023-03-01T17:49:39;4.60;99.90
22850;DHT22;11591;44.792;10.358;2023-03-01T17:52:05;4.60;99.90
22850;DHT22;11591;44.792;10.358;2023-03-01T17:54:31;4.60;99.90
22850;DHT22;11591;44.792;10.358;2023-03-01T17:56:58;4.50;99.90
22850;DHT22;11591;44.792;10.358;2023-03-01T17:59:24;4.60;99.90
22850;DHT22;11591;44.792;10.358;2023-03-01T18:01:56;4.50;99.90
22850;DHT22;11591;44.792;10.358;2023-03-01T18:04:23;4.50;99.90
22850;DHT22;11591;44.792;10.358;2023-03-01T18:06:48;4.50;99.90
22850;DHT22;11591;44.792;10.358;2023-03-01T18:09:14;4.50;99.90
22850;DHT22;11591;44.792;10.358;2023-03-01T18:11:40;4.50;99.90
22850;DHT22;11591;44.792;10.358;2023-03-01T18:14:06;4.60;99.90
22850;DHT22;11591;44.792;10.358;2023-03-01T18:16:33;4.60;99.90
22850;DHT22;11591;44.792;10.358;2023-03-01T18:19:02;4.50;99.90
22850;DHT22;11591;44.792;10.358;2023-03-01T18:21:28;4.60;99.90
22850;DHT22;11591;44.792;10.358;2023-03-01T18:23:54;4.70;99.90
22850;DHT22;11591;44.792;10.358;2023-03-01T18:26:21;4.70;99.90
22850;DHT22;11591;44.792;10.358;2023-03-01T18:28:48;4.80;99.90
22850;DHT22;11591;44.792;10.358;2023-03-01T18:31:16;4.80;99.90
22850;DHT22;11591;44.792;10.358;2023-03-01T18:33:43;4.80;99.90
22850;DHT22;11591;44.792;10.358;2023-03-01T18:36:30;4.80;99.90
22850;DHT22;11591;44.792;10.358;2023-03-01T18:38:56;4.40;99.90
22850;DHT22;11591;44.792;10.358;2023-03-01T18:41:26;4.30;99.90
22850;DHT22;11591;44.792;10.358;2023-03-01T18:43:52;4.10;99.90
22850;DHT22;11591;44.792;10.358;2023-03-01T18:46:18;3.90;99.90
22850;DHT22;11591;44.792;10.358;2023-03-01T18:48:45;3.90;99.90
22850;DHT22;11591;44.792;10.358;2023-03-01T18:51:14;4.00;99.90
22850;DHT22;11591;44.792;10.358;2023-03-01T18:53:40;4.20;99.90
22850;DHT22;11591;44.792;10.358;2023-03-01T18:56:07;4.30;99.90
22850;DHT22;11591;44.792;10.358;2023-03-01T18:58:33;4.30;99.90
22850;DHT22;11591;44.792;10.358;2023-03-01T19:00:59;4.30;99.90
22850;DHT22;11591;44.792;10.358;2023-03-01T19:03:29;4.20;99.90
22850;DHT22;11591;44.792;10.358;2023-03-01T19:05:56;4.00;99.90
22850;DHT22;11591;44.792;10.358;2023-03-01T19:08:23;4.00;99.90
22850;DHT22;11591;44.792;10.358;2023-03-01T19:11:02;4.10;99.90
22850;DHT22;11591;44.792;10.358;2023-03-01T19:13:29;4.20;99.90
22850;DHT22;11591;44.792;10.358;2023-03-01T19:16:03;4.30;99.90
22850;DHT22;11591;44.792;10.358;2023-03-01T19:18:29;4.20;99.90
22850;DHT22;11591;44.792;10.358;2023-03-01T19:21:03;4.20;99.90
22850;DHT22;11591;44.792;10.358;2023-03-01T19:23:30;4.10;99.90
22850;DHT22;11591;44.792;10.358;2023-03-01T19:26:07;4.20;99.90
22850;DHT22;11591;44.792;10.358;2023-03-01T19:28:34;4.20;99.90
22850;DHT22;11591;44.792;10.358;2023-03-01T19:31:07;4.20;99.90
22850;DHT22;11591;44.792;10.358;2023-03-01T19:33:34;4.20;99.90
22850;DHT22;11591;44.792;10.358;2023-03-01T19:36:01;4.10;99.90
22850;DHT22;11591;44.792;10.358;2023-03-01T19:38:28;4.10;99.90
22850;DHT22;11591;44.792;10.358;2023-03-01T19:40:54;4.10;99.90
22850;DHT22;11591;44.792;10.358;2023-03-01T19:43:21;4.00;99.90
22850;DHT22;11591;44.792;10.358;2023-03-01T19:45:54;4.00;99.90
22850;DHT22;11591;44.792;10.358;2023-03-01T19:48:20;3.90;99.90
22850;DHT22;11591;44.792;10.358;2023-03-01T19:50:46;3.90;99.90
22850;DHT22;11591;44.792;10.358;2023-03-01T19:53:13;3.90;99.90
22850;DHT22;11591;44.792;10.358;2023-03-01T19:55:39;3.80;99.90
22850;DHT22;11591;44.792;10.358;2023-03-01T19:58:05;3.80;99.90
22850;DHT22;11591;44.792;10.358;2023-03-01T20:00:35;3.80;99.90
22850;DHT22;11591;44.792;10.358;2023-03-01T20:03:01;3.70;99.90
22850;DHT22;11591;44.792;10.358;2023-03-01T20:05:27;3.70;99.90
22850;DHT22;11591;44.792;10.358;2023-03-01T20:07:56;3.70;99.90
22850;DHT22;11591;44.792;10.358;2023-03-01T20:10:23;3.70;99.90
22850;DHT22;11591;44.792;10.358;2023-03-01T20:12:52;3.70;99.90
22850;DHT22;11591;44.792;10.358;2023-03-01T20:15:18;3.70;99.90
22850;DHT22;11591;44.792;10.358;2023-03-01T20:17:44;3.70;99.90
22850;DHT22;11591;44.792;10.358;2023-03-01T20:20:10;3.70;99.90
22850;DHT22;11591;44.792;10.358;2023-03-01T20:22:37;3.80;99.90
22850;DHT22;11591;44.792;10.358;2023-03-01T20:25:03;3.80;99.90
22850;DHT22;11591;44.792;10.358;2023-03-01T20:27:30;3.80;99.90
22850;DHT22;11591;44.792;10.358;2023-03-01T20:29:55;3.80;99.90
22850;DHT22;11591;44.792;10.358;2023-03-01T20:32:21;3.90;99.90
22850;DHT22;11591;44.792;10.358;2023-03-01T20:34:48;3.90;99.90
22850;DHT22;11591;44.792;10.358;2023-03-01T20:37:16;4.00;99.90
22850;DHT22;11591;44.792;10.358;2023-03-01T20:39:42;4.00;99.90
22850;DHT22;11591;44.792;10.358;2023-03-01T20:42:08;3.90;99.90
22850;DHT22;11591;44.792;10.358;2023-03-01T20:44:36;3.80;99.90
22850;DHT22;11591;44.792;10.358;2023-03-01T20:47:09;3.80;99.90
22850;DHT22;11591;44.792;10.358;2023-03-01T20:49:39;3.90;99.90
22850;DHT22;11591;44.792;10.358;2023-03-01T20:52:06;3.80;99.90
22850;DHT22;11591;44.792;10.358;2023-03-01T20:54:32;3.80;99.90
22850;DHT22;11591;44.792;10.358;2023-03-01T20:56:58;3.80;99.90
22850;DHT22;11591;44.792;10.358;2023-03-01T20:59:23;3.80;99.90
22850;DHT22;11591;44.792;10.358;2023-03-01T21:01:49;3.70;99.90
22850;DHT22;11591;44.792;10.358;2023-03-01T21:04:16;3.60;99.90
22850;DHT22;11591;44.792;10.358;2023-03-01T21:06:45;3.60;99.90
22850;DHT22;11591;44.792;10.358;2023-03-01T21:09:11;3.60;99.90
22850;DHT22;11591;44.792;10.358;2023-03-01T21:11:37;3.50;99.90
22850;DHT22;11591;44.792;10.358;2023-03-01T21:14:03;3.50;99.90
22850;DHT22;11591;44.792;10.358;2023-03-01T21:16:30;3.50;99.90
22850;DHT22;11591;44.792;10.358;2023-03-01T21:18:58;3.50;99.90
22850;DHT22;11591;44.792;10.358;2023-03-01T21:21:26;3.50;99.90
22850;DHT22;11591;44.792;10.358;2023-03-01T21:23:53;3.40;99.90
22850;DHT22;11591;44.792;10.358;2023-03-01T21:26:24;3.40;99.90
22850;DHT22;11591;44.792;10.358;2023-03-01T21:28:57;3.40;99.90
22850;DHT22;11591;44.792;10.358;2023-03-01T21:31:31;3.40;99.90
22850;DHT22;11591;44.792;10.358;2023-03-01T21:34:01;3.30;99.90
22850;DHT22;11591;44.792;10.358;2023-03-01T21:36:29;3.30;99.90
22850;DHT22;11591;44.792;10.358;2023-03-01T21:38:55;3.30;99.90
22850;DHT22;11591;44.792;10.358;2023-03-01T21:41:23;3.40;99.90
22850;DHT22;11591;44.792;10.358;2023-03-01T21:43:50;3.50;99.90
22850;DHT22;11591;44.792;10.358;2023-03-01T21:46:20;3.40;99.90
22850;DHT22;11591;44.792;10.358;2023-03-01T21:48:46;3.50;99.90
22850;DHT22;11591;44.792;10.358;2023-03-01T21:51:15;3.50;99.90
22850;DHT22;11591;44.792;10.358;2023-03-01T21:53:41;3.50;99.90
22850;DHT22;11591;44.792;10.358;2023-03-01T21:56:08;3.60;99.90
22850;DHT22;11591;44.792;10.358;2023-03-01T21:58:34;3.50;99.90
22850;DHT22;11591;44.792;10.358;2023-03-01T22:01:08;3.60;99.90
22850;DHT22;11591;44.792;10.358;2023-03-01T22:03:36;3.60;99.90
22850;DHT22;11591;44.792;10.358;2023-03-01T22:08:52;3.60;99.90
22850;DHT22;11591;44.792;10.358;2023-03-01T22:11:20;3.60;99.90
22850;DHT22;11591;44.792;10.358;2023-03-01T22:13:48;3.60;99.90
22850;DHT22;11591;44.792;10.358;2023-03-01T22:16:18;3.60;99.90
22850;DHT22;11591;44.792;10.358;2023-03-01T22:18:45;3.60;99.90
22850;DHT22;11591;44.792;10.358;2023-03-01T22:21:11;3.60;99.90
22850;DHT22;11591;44.792;10.358;2023-03-01T22:23:38;3.60;99.90
22850;DHT22;11591;44.792;10.358;2023-03-01T22:26:05;3.60;99.90
22850;DHT22;11591;44.792;10.358;2023-03-01T22:28:32;3.70;99.90
22850;DHT22;11591;44.792;10.358;2023-03-01T22:31:02;3.70;99.90
22850;DHT22;11591;44.792;10.358;2023-03-01T22:33:28;3.70;99.90
22850;DHT22;11591;44.792;10.358;2023-03-01T22:35:54;3.70;99.90
22850;DHT22;11591;44.792;10.358;2023-03-01T22:38:20;3.70;99.90
22850;DHT22;11591;44.792;10.358;2023-03-01T22:40:58;3.70;99.90
22850;DHT22;11591;44.792;10.358;2023-03-01T22:43:25;3.70;99.90
22850;DHT22;11591;44.792;10.358;2023-03-01T22:45:51;3.60;99.90
22850;DHT22;11591;44.792;10.358;2023-03-01T22:48:16;3.70;99.90
22850;DHT22;11591;44.792;10.358;2023-03-01T22:50:44;3.70;99.90
22850;DHT22;11591;44.792;10.358;2023-03-01T22:53:09;3.70;99.90
22850;DHT22;11591;44.792;10.358;2023-03-01T22:55:35;3.70;99.90
22850;DHT22;11591;44.792;10.358;2023-03-01T22:58:01;3.80;99.90
22850;DHT22;11591;44.792;10.358;2023-03-01T23:00:27;3.70;99.90
22850;DHT22;11591;44.792;10.358;2023-03-01T23:02:53;3.70;99.90
22850;DHT22;11591;44.792;10.358;2023-03-01T23:05:18;3.60;99.90
22850;DHT22;11591;44.792;10.358;2023-03-01T23:07:44;3.60;99.90
22850;DHT22;11591;44.792;10.358;2023-03-01T23:10:12;3.60;99.90
22850;DHT22;11591;44.792;10.358;2023-03-01T23:12:39;3.70;99.90
22850;DHT22;11591;44.792;10.358;2023-03-01T23:15:06;3.70;99.90
22850;DHT22;11591;44.792;10.358;2023-03-01T23:17:32;3.70;99.90
22850;DHT22;11591;44.792;10.358;2023-03-01T23:19:58;3.70;99.90
22850;DHT22;11591;44.792;10.358;2023-03-01T23:22:24;3.70;99.90
22850;DHT22;11591;44.792;10.358;2023-03-01T23:24:49;3.80;99.90
22850;DHT22;11591;44.792;10.358;2023-03-01T23:27:15;3.80;99.90
22850;DHT22;11591;44.792;10.358;2023-03-01T23:29:44;3.90;99.90